Time;durP1;ratioP1;P1;durP2;ratioP2;P2;SDS_P1;SDS_P2;PMS_P1;PMS_P2;Temp;Humidity;BMP_temperature;BMP_pressure;BME280_temperature;BME280_humidity;BME280_pressure;Samples;Min_cycle;Max_cycle;Signal;HPM_P1;HPM_P2
2021/07/03 00:00:08;;;;;;;23.97;19.57;;;;;;;;;;3591207;39;20764;-75
2021/07/03 00:02:34;;;;;;;26.50;20.10;;;;;;;;;;3587822;39;20485;-75
2021/07/03 00:05:00;;;;;;;28.53;21.57;;;;;;;;;;3588864;39;20427;-75
2021/07/03 00:07:26;;;;;;;28.90;19.43;;;;;;;;;;3589379;39;20387;-75
2021/07/03 00:09:52;;;;;;;36.13;22.23;;;;;;;;;;3589818;39;20430;-75
2021/07/03 00:12:19;;;;;;;24.53;19.50;;;;;;;;;;3599966;39;20799;-76
2021/07/03 00:14:45;;;;;;;31.10;23.20;;;;;;;;;;3589502;39;20422;-75
2021/07/03 00:17:11;;;;;;;31.03;22.77;;;;;;;;;;3579769;39;21646;-75
2021/07/03 00:19:37;;;;;;;34.80;24.90;;;;;;;;;;3588329;39;20493;-76
2021/07/03 00:22:05;;;;;;;34.03;25.07;;;;;;;;;;3597177;39;20422;-75
2021/07/03 00:24:31;;;;;;;32.87;24.30;;;;;;;;;;3589038;39;20431;-75
2021/07/03 00:26:57;;;;;;;32.30;23.13;;;;;;;;;;3580727;39;20439;-75
2021/07/03 00:29:23;;;;;;;35.87;24.17;;;;;;;;;;3589542;39;20492;-75
2021/07/03 00:31:49;;;;;;;39.53;23.10;;;;;;;;;;3597682;39;20406;-75
2021/07/03 00:34:16;;;;;;;34.37;23.30;;;;;;;;;;3597502;39;20407;-75
2021/07/03 00:36:42;;;;;;;34.87;22.20;;;;;;;;;;3577998;39;20358;-76
2021/07/03 00:39:08;;;;;;;32.90;25.63;;;;;;;;;;3574282;39;20509;-75
2021/07/03 00:41:34;;;;;;;34.87;23.70;;;;;;;;;;3579328;39;20458;-75
2021/07/03 00:44:00;;;;;;;29.90;22.00;;;;;;;;;;3571930;39;20446;-74
2021/07/03 00:46:26;;;;;;;33.90;23.50;;;;;;;;;;3587420;39;20473;-75
2021/07/03 00:48:52;;;;;;;35.13;24.10;;;;;;;;;;3578701;39;20742;-75
2021/07/03 00:51:18;;;;;;;31.50;23.10;;;;;;;;;;3570260;39;20407;-75
2021/07/03 00:53:45;;;;;;;33.40;24.13;;;;;;;;;;3589055;39;20421;-75
2021/07/03 00:56:11;;;;;;;31.97;24.07;;;;;;;;;;3577787;39;20799;-75
2021/07/03 00:58:37;;;;;;;30.07;21.57;;;;;;;;;;3577366;39;20689;-75
2021/07/03 01:01:03;;;;;;;29.60;21.10;;;;;;;;;;3571201;39;20881;-75
2021/07/03 01:03:29;;;;;;;27.67;21.43;;;;;;;;;;3591036;39;21297;-75
2021/07/03 01:05:55;;;;;;;29.17;22.30;;;;;;;;;;3642227;23;20531;-80
2021/07/03 01:08:21;;;;;;;25.63;21.57;;;;;;;;;;3597925;39;20382;-81
2021/07/03 01:10:49;;;;;;;27.10;20.20;;;;;;;;;;3584356;39;20402;-81
2021/07/03 01:13:17;;;;;;;31.10;21.50;;;;;;;;;;3596874;39;20459;-80
2021/07/03 01:15:43;;;;;;;29.70;22.80;;;;;;;;;;3594968;39;20400;-81
2021/07/03 01:18:09;;;;;;;28.83;21.10;;;;;;;;;;3588697;39;20418;-81
2021/07/03 01:20:37;;;;;;;33.00;22.63;;;;;;;;;;3590705;39;20502;-81
2021/07/03 01:23:03;;;;;;;27.30;20.97;;;;;;;;;;3594115;39;20406;-81
2021/07/03 01:25:29;;;;;;;26.30;21.40;;;;;;;;;;3596940;39;20403;-81
2021/07/03 01:28:06;;;;;;;31.17;21.50;;;;;;;;;;3605350;39;20464;-81
2021/07/03 01:30:32;;;;;;;25.00;20.03;;;;;;;;;;3585204;39;20504;-81
2021/07/03 01:33:04;;;;;;;36.33;23.00;;;;;;;;;;3589634;39;20417;-81
2021/07/03 01:35:31;;;;;;;30.07;21.97;;;;;;;;;;3595560;39;20705;-80
2021/07/03 01:37:59;;;;;;;33.60;22.50;;;;;;;;;;3607462;39;20447;-81
2021/07/03 01:40:29;;;;;;;42.70;24.90;;;;;;;;;;3589509;39;20423;-80
2021/07/03 01:42:55;;;;;;;36.33;25.17;;;;;;;;;;3586135;39;21117;-81
2021/07/03 01:45:21;;;;;;;28.30;23.40;;;;;;;;;;3592920;39;20391;-81
2021/07/03 01:47:47;;;;;;;34.33;24.40;;;;;;;;;;3583306;39;20465;-81
2021/07/03 01:50:13;;;;;;;35.60;24.10;;;;;;;;;;3581836;39;20459;-81
2021/07/03 01:52:40;;;;;;;32.60;23.60;;;;;;;;;;3608312;39;20438;-81
2021/07/03 01:55:09;;;;;;;32.20;22.90;;;;;;;;;;3598238;39;20391;-81
2021/07/03 01:57:36;;;;;;;30.93;23.47;;;;;;;;;;3598435;39;20415;-81
2021/07/03 02:00:08;;;;;;;33.17;23.30;;;;;;;;;;3588815;39;20503;-82
2021/07/03 02:02:35;;;;;;;30.40;22.10;;;;;;;;;;3597913;39;20412;-84
2021/07/03 02:05:01;;;;;;;30.07;23.50;;;;;;;;;;3590564;39;20459;-84
2021/07/03 02:07:27;;;;;;;29.20;22.20;;;;;;;;;;3594029;39;20415;-84
2021/07/03 02:09:54;;;;;;;29.90;22.10;;;;;;;;;;3602860;39;20393;-84
2021/07/03 02:12:21;;;;;;;28.97;22.53;;;;;;;;;;3603450;39;21102;-85
2021/07/03 02:14:47;;;;;;;31.37;22.77;;;;;;;;;;3586728;39;20381;-83
2021/07/03 02:17:14;;;;;;;31.80;22.27;;;;;;;;;;3581078;39;20522;-83
2021/07/03 02:19:40;;;;;;;30.33;22.27;;;;;;;;;;3599469;39;20415;-84
2021/07/03 02:22:06;;;;;;;33.50;24.63;;;;;;;;;;3628034;22;20483;-82
2021/07/03 02:24:32;;;;;;;32.73;20.77;;;;;;;;;;3580367;39;20815;-82
2021/07/03 02:27:00;;;;;;;26.03;20.30;;;;;;;;;;3579879;39;20382;-81
2021/07/03 02:29:55;;;;;;;35.47;23.20;;;;;;;;;;3588027;39;20390;-82
2021/07/03 02:32:23;;;;;;;25.73;21.03;;;;;;;;;;3580720;39;21667;-82
2021/07/03 02:34:50;;;;;;;32.13;20.40;;;;;;;;;;3589788;39;20404;-82
2021/07/03 02:37:16;;;;;;;32.30;23.33;;;;;;;;;;3585621;39;20696;-82
2021/07/03 02:39:44;;;;;;;27.87;22.10;;;;;;;;;;3596966;39;21776;-82
2021/07/03 02:42:37;;;;;;;30.67;21.37;;;;;;;;;;3598470;39;20427;-82
2021/07/03 02:45:09;;;;;;;26.03;18.87;;;;;;;;;;3588306;39;21149;-82
2021/07/03 02:47:36;;;;;;;27.13;20.80;;;;;;;;;;3589224;39;20448;-82
2021/07/03 02:50:08;;;;;;;24.87;19.17;;;;;;;;;;3588216;39;20473;-81
2021/07/03 02:52:34;;;;;;;27.30;20.87;;;;;;;;;;3586940;39;21345;-80
2021/07/03 02:55:00;;;;;;;27.73;20.73;;;;;;;;;;3594942;39;20473;-80
2021/07/03 02:57:26;;;;;;;29.87;20.80;;;;;;;;;;3585976;39;20459;-80
2021/07/03 02:59:53;;;;;;;29.03;22.10;;;;;;;;;;3578663;39;20902;-80
2021/07/03 03:02:19;;;;;;;31.73;22.40;;;;;;;;;;3585317;39;20439;-80
2021/07/03 03:04:45;;;;;;;31.03;23.67;;;;;;;;;;3580601;39;20415;-80
2021/07/03 03:07:13;;;;;;;31.30;22.90;;;;;;;;;;3566533;40;20408;-80
2021/07/03 03:09:40;;;;;;;31.17;23.97;;;;;;;;;;3568574;39;21036;-80
2021/07/03 03:12:07;;;;;;;33.83;24.03;;;;;;;;;;3585473;39;20812;-80
2021/07/03 03:14:35;;;;;;;30.70;24.30;;;;;;;;;;3574313;40;20797;-80
2021/07/03 03:17:02;;;;;;;44.67;27.27;;;;;;;;;;3583573;39;20456;-80
2021/07/03 03:19:30;;;;;;;39.33;25.87;;;;;;;;;;3575385;39;20420;-80
2021/07/03 03:21:56;;;;;;;39.67;26.53;;;;;;;;;;3582855;39;20793;-80
2021/07/03 03:24:22;;;;;;;32.70;23.37;;;;;;;;;;3564737;40;20413;-80
2021/07/03 03:26:50;;;;;;;38.63;24.87;;;;;;;;;;3575950;40;20436;-80
2021/07/03 03:29:17;;;;;;;36.40;26.23;;;;;;;;;;3575904;40;20788;-79
2021/07/03 03:31:44;;;;;;;29.83;24.50;;;;;;;;;;3584622;39;20401;-79
2021/07/03 03:34:11;;;;;;;32.50;24.63;;;;;;;;;;3582308;39;20364;-79
2021/07/03 03:36:37;;;;;;;37.70;25.13;;;;;;;;;;3571600;40;20742;-79
2021/07/03 03:39:03;;;;;;;35.77;25.97;;;;;;;;;;3585747;39;20433;-79
2021/07/03 03:41:29;;;;;;;34.87;26.60;;;;;;;;;;3592058;39;20397;-79
2021/07/03 03:43:57;;;;;;;32.27;24.40;;;;;;;;;;3581716;40;20400;-80
2021/07/03 03:46:24;;;;;;;37.50;25.60;;;;;;;;;;3572233;40;20450;-80
2021/07/03 03:48:50;;;;;;;36.10;23.93;;;;;;;;;;3573681;40;20518;-80
2021/07/03 03:51:18;;;;;;;31.47;24.77;;;;;;;;;;3588915;39;20491;-79
2021/07/03 03:53:45;;;;;;;31.87;23.77;;;;;;;;;;3587866;40;20385;-80
2021/07/03 03:56:13;;;;;;;34.80;24.63;;;;;;;;;;3580354;40;21285;-80
2021/07/03 03:58:39;;;;;;;33.43;24.17;;;;;;;;;;3578695;40;20415;-80
2021/07/03 04:01:05;;;;;;;35.87;24.70;;;;;;;;;;3578786;40;20401;-80
2021/07/03 04:03:33;;;;;;;35.30;24.37;;;;;;;;;;3585649;39;20423;-80
2021/07/03 04:06:00;;;;;;;33.97;23.47;;;;;;;;;;3586376;39;20960;-79
2021/07/03 04:08:32;;;;;;;34.13;23.13;;;;;;;;;;3577445;40;20424;-79
2021/07/03 04:10:58;;;;;;;30.60;21.90;;;;;;;;;;3586528;39;20413;-79
2021/07/03 04:13:24;;;;;;;33.47;21.50;;;;;;;;;;3585667;39;20494;-79
2021/07/03 04:15:51;;;;;;;30.33;20.57;;;;;;;;;;3583881;39;20401;-80
2021/07/03 04:18:18;;;;;;;32.93;22.60;;;;;;;;;;3569410;40;20402;-79
2021/07/03 04:20:45;;;;;;;31.03;23.90;;;;;;;;;;3578352;40;21384;-79
2021/07/03 04:23:11;;;;;;;29.67;22.77;;;;;;;;;;3584554;39;20397;-79
2021/07/03 04:25:39;;;;;;;39.67;23.47;;;;;;;;;;3586367;40;20413;-79
2021/07/03 04:28:06;;;;;;;34.93;25.43;;;;;;;;;;3587062;40;20885;-79
2021/07/03 04:30:33;;;;;;;31.70;23.10;;;;;;;;;;3588007;40;20401;-80
2021/07/03 04:32:59;;;;;;;29.70;24.27;;;;;;;;;;3585921;40;20388;-79
2021/07/03 04:35:25;;;;;;;34.50;23.30;;;;;;;;;;3587165;40;20429;-80
2021/07/03 04:37:52;;;;;;;26.53;20.93;;;;;;;;;;3584862;40;20444;-79
2021/07/03 04:40:18;;;;;;;31.50;22.30;;;;;;;;;;3575969;40;21137;-80
2021/07/03 04:42:45;;;;;;;28.53;21.90;;;;;;;;;;3576431;40;20506;-80
2021/07/03 04:45:19;;;;;;;32.20;22.00;;;;;;;;;;3585015;39;20440;-79
2021/07/03 04:47:46;;;;;;;30.43;23.27;;;;;;;;;;3575000;40;20827;-80
2021/07/03 04:50:14;;;;;;;25.77;21.27;;;;;;;;;;3576908;40;20432;-79
2021/07/03 04:52:40;;;;;;;39.63;23.83;;;;;;;;;;3585551;40;20397;-80
2021/07/03 04:55:09;;;;;;;32.77;24.70;;;;;;;;;;3584779;40;20404;-80
2021/07/03 04:57:35;;;;;;;32.63;21.20;;;;;;;;;;3585932;40;20399;-80
2021/07/03 05:00:02;;;;;;;39.10;23.00;;;;;;;;;;3586121;40;20423;-79
2021/07/03 05:02:28;;;;;;;26.90;22.37;;;;;;;;;;3585722;39;20412;-79
2021/07/03 05:04:54;;;;;;;30.37;22.93;;;;;;;;;;3567911;40;20480;-79
2021/07/03 05:07:21;;;;;;;25.37;19.63;;;;;;;;;;3566433;40;20487;-79
2021/07/03 05:09:47;;;;;;;26.33;20.83;;;;;;;;;;3585211;40;21107;-79
2021/07/03 05:12:13;;;;;;;29.43;19.43;;;;;;;;;;3583905;40;20548;-79
2021/07/03 05:14:40;;;;;;;27.47;21.27;;;;;;;;;;3584813;40;20412;-79
2021/07/03 05:17:07;;;;;;;27.00;20.67;;;;;;;;;;3586321;40;20428;-80
2021/07/03 05:19:35;;;;;;;29.40;21.10;;;;;;;;;;3576107;40;20421;-80
2021/07/03 05:22:01;;;;;;;30.03;20.03;;;;;;;;;;3584064;40;20446;-78
2021/07/03 05:24:27;;;;;;;28.43;18.57;;;;;;;;;;3580864;39;20421;-78
2021/07/03 05:26:54;;;;;;;22.03;19.67;;;;;;;;;;3581385;39;20403;-78
2021/07/03 05:29:20;;;;;;;21.50;18.30;;;;;;;;;;3574196;40;20400;-78
2021/07/03 05:31:47;;;;;;;22.67;19.03;;;;;;;;;;3574047;39;20381;-78
2021/07/03 05:34:13;;;;;;;26.70;18.53;;;;;;;;;;3581889;39;20413;-78
2021/07/03 05:36:39;;;;;;;23.10;18.67;;;;;;;;;;3573275;39;20416;-78
2021/07/03 05:39:05;;;;;;;23.23;19.40;;;;;;;;;;3573168;39;20678;-77
2021/07/03 05:41:35;;;;;;;22.47;18.23;;;;;;;;;;3582009;39;20440;-78
2021/07/03 05:44:02;;;;;;;21.10;17.90;;;;;;;;;;3563691;39;20405;-77
2021/07/03 05:46:30;;;;;;;19.80;17.57;;;;;;;;;;3583272;39;20592;-78
2021/07/03 05:48:57;;;;;;;20.63;18.33;;;;;;;;;;3573657;39;20504;-77
2021/07/03 05:51:27;;;;;;;19.27;17.33;;;;;;;;;;3583464;39;20396;-79
2021/07/03 05:53:54;;;;;;;17.87;15.83;;;;;;;;;;3583385;39;20504;-79
2021/07/03 05:56:20;;;;;;;21.17;18.93;;;;;;;;;;3573852;39;20444;-79
2021/07/03 05:58:47;;;;;;;21.17;17.93;;;;;;;;;;3581387;39;20530;-79
2021/07/03 06:01:13;;;;;;;19.33;17.20;;;;;;;;;;3573390;39;20571;-78
2021/07/03 06:03:39;;;;;;;21.00;18.73;;;;;;;;;;3581371;39;20479;-79
2021/07/03 06:06:05;;;;;;;23.43;19.10;;;;;;;;;;3581223;39;20410;-78
2021/07/03 06:08:31;;;;;;;20.63;18.37;;;;;;;;;;3581005;39;24201;-78
2021/07/03 06:10:57;;;;;;;20.93;17.33;;;;;;;;;;3573128;40;20405;-78
2021/07/03 06:13:24;;;;;;;22.83;20.40;;;;;;;;;;3581648;39;20400;-80
2021/07/03 06:15:50;;;;;;;23.30;18.10;;;;;;;;;;3573933;40;20398;-79
2021/07/03 06:18:16;;;;;;;27.20;21.43;;;;;;;;;;3573960;40;20430;-78
2021/07/03 06:20:42;;;;;;;24.43;18.90;;;;;;;;;;3583236;40;20459;-79
2021/07/03 06:23:08;;;;;;;22.77;18.73;;;;;;;;;;3579934;39;20429;-78
2021/07/03 06:25:34;;;;;;;19.60;17.50;;;;;;;;;;3572357;40;21230;-78
2021/07/03 06:28:00;;;;;;;21.43;17.93;;;;;;;;;;3580925;39;20420;-78
2021/07/03 06:30:27;;;;;;;21.23;19.13;;;;;;;;;;3572450;40;20454;-78
2021/07/03 06:32:53;;;;;;;17.10;15.40;;;;;;;;;;3579464;39;20497;-78
2021/07/03 06:35:19;;;;;;;23.67;16.83;;;;;;;;;;3579635;39;20451;-78
2021/07/03 06:37:45;;;;;;;19.37;16.97;;;;;;;;;;3578122;39;20421;-78
2021/07/03 06:40:12;;;;;;;18.40;16.53;;;;;;;;;;3579807;39;20405;-78
2021/07/03 06:42:38;;;;;;;25.57;18.17;;;;;;;;;;3571075;40;20409;-78
2021/07/03 06:45:05;;;;;;;19.53;17.50;;;;;;;;;;3571487;40;20401;-78
2021/07/03 06:47:31;;;;;;;18.63;16.57;;;;;;;;;;3580461;39;20404;-78
2021/07/03 06:49:58;;;;;;;19.47;17.47;;;;;;;;;;3580876;40;20837;-78
2021/07/03 06:52:24;;;;;;;18.93;17.23;;;;;;;;;;3580686;40;20423;-78
2021/07/03 06:54:50;;;;;;;20.03;16.40;;;;;;;;;;3571473;40;20428;-80
2021/07/03 06:57:16;;;;;;;20.43;18.07;;;;;;;;;;3580166;39;20413;-78
2021/07/03 06:59:42;;;;;;;18.73;17.00;;;;;;;;;;3580018;39;20388;-79
2021/07/03 07:02:09;;;;;;;20.87;18.60;;;;;;;;;;3581733;40;20409;-79
2021/07/03 07:04:35;;;;;;;19.27;17.47;;;;;;;;;;3580633;40;20417;-79
2021/07/03 07:07:03;;;;;;;21.60;17.47;;;;;;;;;;3579386;39;20515;-79
2021/07/03 07:09:29;;;;;;;18.43;16.63;;;;;;;;;;3571387;40;21343;-79
2021/07/03 07:11:58;;;;;;;20.83;18.93;;;;;;;;;;3572528;40;20420;-78
2021/07/03 07:14:24;;;;;;;19.97;17.80;;;;;;;;;;3573792;40;20436;-79
2021/07/03 07:16:51;;;;;;;20.20;18.10;;;;;;;;;;3581802;39;20428;-79
2021/07/03 07:19:17;;;;;;;19.80;17.00;;;;;;;;;;3581059;39;20393;-79
2021/07/03 07:21:44;;;;;;;18.87;16.93;;;;;;;;;;3581300;39;20837;-79
2021/07/03 07:24:10;;;;;;;18.53;16.60;;;;;;;;;;3578927;39;20531;-78
2021/07/03 07:26:37;;;;;;;16.60;15.10;;;;;;;;;;3570195;40;21365;-79
2021/07/03 07:29:05;;;;;;;17.90;16.10;;;;;;;;;;3579806;39;20430;-79
2021/07/03 07:31:32;;;;;;;18.10;16.17;;;;;;;;;;3578688;39;20413;-79
2021/07/03 07:33:58;;;;;;;15.30;13.90;;;;;;;;;;3570442;40;20411;-79
2021/07/03 07:36:24;;;;;;;16.27;14.60;;;;;;;;;;3569392;39;20476;-79
2021/07/03 07:38:52;;;;;;;16.17;14.67;;;;;;;;;;3574786;39;20484;-79
2021/07/03 07:41:18;;;;;;;17.00;15.40;;;;;;;;;;3581852;39;20412;-80
2021/07/03 07:43:44;;;;;;;17.73;16.23;;;;;;;;;;3579300;39;20409;-79
2021/07/03 07:46:11;;;;;;;18.60;16.23;;;;;;;;;;3580716;39;20416;-79
2021/07/03 07:48:37;;;;;;;14.77;13.27;;;;;;;;;;3573218;39;20751;-80
2021/07/03 07:51:06;;;;;;;15.23;13.73;;;;;;;;;;3567580;39;20852;-79
2021/07/03 07:53:34;;;;;;;16.67;14.87;;;;;;;;;;3582668;39;20818;-80
2021/07/03 07:56:00;;;;;;;15.17;13.93;;;;;;;;;;3583384;39;20420;-80
2021/07/03 07:58:27;;;;;;;15.63;13.63;;;;;;;;;;3573907;40;20421;-79
2021/07/03 08:00:53;;;;;;;14.10;12.87;;;;;;;;;;3575011;40;20420;-79
2021/07/03 08:03:20;;;;;;;15.87;14.30;;;;;;;;;;3571396;40;20448;-80
2021/07/03 08:05:47;;;;;;;15.47;14.17;;;;;;;;;;3573063;40;20453;-82
2021/07/03 08:08:13;;;;;;;13.97;12.40;;;;;;;;;;3580561;40;20405;-79
2021/07/03 08:10:40;;;;;;;13.70;12.50;;;;;;;;;;3572039;40;20401;-80
2021/07/03 08:13:06;;;;;;;14.87;13.47;;;;;;;;;;3567838;40;20436;-79
2021/07/03 08:15:33;;;;;;;13.77;12.47;;;;;;;;;;3580350;39;21242;-79
2021/07/03 08:18:01;;;;;;;14.23;13.10;;;;;;;;;;3580780;39;20448;-79
2021/07/03 08:20:28;;;;;;;13.20;12.00;;;;;;;;;;3571464;40;20433;-79
2021/07/03 08:22:54;;;;;;;12.90;11.63;;;;;;;;;;3579750;39;20461;-79
2021/07/03 08:25:21;;;;;;;12.97;11.90;;;;;;;;;;3582130;39;20502;-80
2021/07/03 08:27:49;;;;;;;12.97;11.77;;;;;;;;;;3580999;40;20828;-80
2021/07/03 08:30:16;;;;;;;13.03;11.77;;;;;;;;;;3574868;40;20427;-80
2021/07/03 08:32:43;;;;;;;11.63;10.63;;;;;;;;;;3582311;39;20420;-80
2021/07/03 08:35:10;;;;;;;10.90;10.00;;;;;;;;;;3582637;40;20449;-81
2021/07/03 08:37:36;;;;;;;12.70;11.37;;;;;;;;;;3579140;40;20499;-79
2021/07/03 08:40:04;;;;;;;12.20;11.20;;;;;;;;;;3573173;40;21344;-79
2021/07/03 08:42:32;;;;;;;12.90;11.70;;;;;;;;;;3580405;40;20610;-80
2021/07/03 08:44:58;;;;;;;12.30;11.40;;;;;;;;;;3573190;40;20570;-79
2021/07/03 08:47:25;;;;;;;13.47;12.50;;;;;;;;;;3579176;40;20452;-79
2021/07/03 08:50:00;;;;;;;11.87;10.70;;;;;;;;;;3575436;40;20407;-80
2021/07/03 08:52:26;;;;;;;11.93;10.67;;;;;;;;;;3582421;39;20412;-79
2021/07/03 08:55:06;;;;;;;13.33;11.20;;;;;;;;;;3580136;39;20468;-80
2021/07/03 08:57:44;;;;;;;11.87;10.87;;;;;;;;;;3573472;39;21160;-79
2021/07/03 09:00:10;;;;;;;10.80;9.87;;;;;;;;;;3572833;40;20527;-80
2021/07/03 09:02:38;;;;;;;11.20;10.40;;;;;;;;;;3574628;39;20409;-80
2021/07/03 09:05:07;;;;;;;11.43;10.53;;;;;;;;;;3576084;39;21637;-80
2021/07/03 09:07:35;;;;;;;12.00;11.10;;;;;;;;;;3573682;39;20401;-81
2021/07/03 09:10:01;;;;;;;12.37;11.43;;;;;;;;;;3583556;39;20404;-81
2021/07/03 09:12:35;;;;;;;12.43;11.47;;;;;;;;;;3575722;39;20463;-81
2021/07/03 09:15:14;;;;;;;12.60;11.40;;;;;;;;;;3575554;40;20490;-81
2021/07/03 09:17:54;;;;;;;11.97;10.97;;;;;;;;;;3582878;39;20388;-78
2021/07/03 09:20:29;;;;;;;12.40;11.30;;;;;;;;;;3572511;40;20436;-79
2021/07/03 09:23:03;;;;;;;12.57;11.47;;;;;;;;;;3575284;39;20407;-80
2021/07/03 09:25:29;;;;;;;11.50;10.60;;;;;;;;;;3582118;39;20420;-81
2021/07/03 09:27:56;;;;;;;12.20;11.03;;;;;;;;;;3576248;40;20821;-80
2021/07/03 09:30:23;;;;;;;12.87;11.77;;;;;;;;;;3572910;39;20397;-80
2021/07/03 09:32:51;;;;;;;11.80;10.60;;;;;;;;;;3580391;40;20417;-80
2021/07/03 09:35:17;;;;;;;11.60;10.70;;;;;;;;;;3574429;40;20408;-80
2021/07/03 09:37:44;;;;;;;11.67;10.87;;;;;;;;;;3571946;40;20431;-81
2021/07/03 09:40:10;;;;;;;11.73;10.80;;;;;;;;;;3582178;39;20404;-89
2021/07/03 09:42:38;;;;;;;11.67;10.67;;;;;;;;;;3580527;39;21023;-82
2021/07/03 09:45:05;;;;;;;11.00;10.10;;;;;;;;;;3571828;40;20466;-84
2021/07/03 09:47:31;;;;;;;10.47;9.67;;;;;;;;;;3580043;39;20396;-82
2021/07/03 09:50:05;;;;;;;10.87;9.97;;;;;;;;;;3564970;39;20402;-81
2021/07/03 09:52:31;;;;;;;11.50;10.40;;;;;;;;;;3572791;39;20464;-81
2021/07/03 09:54:57;;;;;;;10.60;9.70;;;;;;;;;;3581434;39;20407;-81
2021/07/03 09:57:24;;;;;;;12.70;11.60;;;;;;;;;;3581275;39;20401;-80
2021/07/03 09:59:51;;;;;;;10.37;9.67;;;;;;;;;;3583622;39;20403;-80
2021/07/03 10:02:17;;;;;;;11.60;10.70;;;;;;;;;;3565660;40;20437;-81
2021/07/03 10:04:44;;;;;;;10.80;10.00;;;;;;;;;;3582592;39;20432;-79
2021/07/03 10:07:17;;;;;;;11.37;10.43;;;;;;;;;;3581998;39;20445;-82
2021/07/03 10:09:57;;;;;;;10.83;9.93;;;;;;;;;;3573320;39;20420;-81
2021/07/03 10:12:28;;;;;;;10.40;9.70;;;;;;;;;;3583044;39;20404;-82
2021/07/03 10:14:54;;;;;;;12.03;10.93;;;;;;;;;;3575480;39;20453;-83
2021/07/03 10:17:31;;;;;;;10.20;9.50;;;;;;;;;;3582291;39;20425;-82
2021/07/03 10:19:58;;;;;;;12.37;11.60;;;;;;;;;;3581447;39;20463;-82
2021/07/03 10:22:25;;;;;;;11.90;11.10;;;;;;;;;;3580737;39;21100;-81
2021/07/03 10:24:57;;;;;;;10.53;9.60;;;;;;;;;;3583112;39;20849;-82
2021/07/03 10:27:24;;;;;;;12.83;11.93;;;;;;;;;;3574052;40;20514;-82
2021/07/03 10:29:52;;;;;;;11.60;10.80;;;;;;;;;;3581266;39;20392;-80
2021/07/03 10:32:22;;;;;;;8.70;8.00;;;;;;;;;;3582713;39;20680;-81
2021/07/03 10:34:49;;;;;;;9.50;8.60;;;;;;;;;;3573319;39;20393;-80
2021/07/03 10:37:17;;;;;;;10.17;9.40;;;;;;;;;;3582179;39;21241;-80
2021/07/03 10:39:43;;;;;;;11.30;10.50;;;;;;;;;;3573667;39;20429;-81
2021/07/03 10:42:10;;;;;;;10.13;9.40;;;;;;;;;;3578980;40;21211;-80
2021/07/03 10:44:43;;;;;;;11.10;10.20;;;;;;;;;;3573774;40;20472;-80
2021/07/03 10:47:10;;;;;;;9.50;8.70;;;;;;;;;;3575073;40;20392;-80
2021/07/03 10:49:38;;;;;;;10.77;10.00;;;;;;;;;;3583637;39;20808;-80
2021/07/03 10:52:12;;;;;;;11.83;11.03;;;;;;;;;;3582938;39;20437;-81
2021/07/03 10:54:39;;;;;;;10.47;9.83;;;;;;;;;;3581612;39;20515;-79
2021/07/03 10:57:05;;;;;;;10.37;9.63;;;;;;;;;;3582375;39;20388;-80
2021/07/03 10:59:36;;;;;;;11.70;10.70;;;;;;;;;;3574124;40;20418;-81
2021/07/03 11:02:16;;;;;;;10.27;9.57;;;;;;;;;;3576043;40;20417;-80
2021/07/03 11:05:02;;;;;;;11.40;10.43;;;;;;;;;;3580687;39;20456;-79
2021/07/03 11:07:33;;;;;;;10.03;9.33;;;;;;;;;;3582064;39;20443;-81
2021/07/03 11:10:06;;;;;;;10.93;9.73;;;;;;;;;;3581273;39;22088;-81
2021/07/03 11:12:45;;;;;;;9.40;8.80;;;;;;;;;;3571873;39;20856;-81
2021/07/03 11:15:13;;;;;;;9.33;8.73;;;;;;;;;;3571718;40;20428;-84
2021/07/03 11:17:39;;;;;;;9.37;8.77;;;;;;;;;;3584396;39;20488;-88
2021/07/03 11:20:25;;;;;;;9.37;8.67;;;;;;;;;;3585928;39;20405;-80
2021/07/03 11:23:02;;;;;;;9.13;8.63;;;;;;;;;;3580984;39;20883;-80
2021/07/03 11:25:30;;;;;;;9.93;9.00;;;;;;;;;;3584716;39;20495;-80
2021/07/03 11:28:10;;;;;;;10.37;9.57;;;;;;;;;;3584125;39;20532;-79
2021/07/03 11:30:37;;;;;;;9.83;9.23;;;;;;;;;;3577713;40;20511;-79
2021/07/03 11:33:04;;;;;;;6.90;6.33;;;;;;;;;;3584489;40;20429;-79
2021/07/03 11:35:31;;;;;;;10.47;9.60;;;;;;;;;;3583487;39;20465;-81
2021/07/03 11:37:58;;;;;;;9.80;9.10;;;;;;;;;;3584561;39;20415;-80
2021/07/03 11:40:26;;;;;;;10.40;9.60;;;;;;;;;;3576038;39;20451;-81
2021/07/03 11:42:53;;;;;;;10.30;9.60;;;;;;;;;;3574226;40;21183;-81
2021/07/03 11:45:22;;;;;;;9.37;8.80;;;;;;;;;;3582380;40;21358;-80
2021/07/03 11:47:50;;;;;;;10.30;9.60;;;;;;;;;;3574907;39;20456;-80
2021/07/03 11:50:22;;;;;;;10.27;9.50;;;;;;;;;;3558282;39;20472;-81
2021/07/03 11:52:50;;;;;;;10.30;9.50;;;;;;;;;;3583366;39;20386;-80
2021/07/03 11:55:18;;;;;;;9.67;8.97;;;;;;;;;;3575322;40;20416;-78
2021/07/03 11:57:45;;;;;;;10.27;9.67;;;;;;;;;;3571849;40;20393;-79
2021/07/03 12:00:13;;;;;;;9.27;8.77;;;;;;;;;;3583543;39;20970;-79
2021/07/03 12:02:42;;;;;;;9.90;9.30;;;;;;;;;;3577244;40;21597;-79
2021/07/03 12:05:08;;;;;;;8.23;7.40;;;;;;;;;;3573153;40;20514;-81
2021/07/03 12:07:36;;;;;;;8.17;7.67;;;;;;;;;;3584546;40;20408;-80
2021/07/03 12:10:06;;;;;;;10.17;9.40;;;;;;;;;;3578244;40;20428;-80
2021/07/03 12:12:33;;;;;;;10.10;9.40;;;;;;;;;;3584051;40;21254;-79
2021/07/03 12:15:00;;;;;;;9.00;8.37;;;;;;;;;;3583825;39;20528;-79
2021/07/03 12:17:26;;;;;;;8.73;8.03;;;;;;;;;;3565912;40;20413;-80
2021/07/03 12:20:02;;;;;;;9.97;9.30;;;;;;;;;;3583663;39;20518;-79
2021/07/03 12:22:29;;;;;;;9.20;8.50;;;;;;;;;;3575393;39;20407;-79
2021/07/03 12:24:56;;;;;;;8.50;8.00;;;;;;;;;;3582181;39;20448;-80
2021/07/03 12:27:23;;;;;;;9.97;9.37;;;;;;;;;;3568135;39;20494;-80
2021/07/03 12:29:49;;;;;;;9.63;9.03;;;;;;;;;;3576425;39;21260;-80
2021/07/03 12:32:17;;;;;;;9.87;9.27;;;;;;;;;;3560609;40;20541;-80
2021/07/03 12:34:43;;;;;;;10.40;9.80;;;;;;;;;;3575867;40;20411;-80
2021/07/03 12:37:14;;;;;;;10.17;9.57;;;;;;;;;;3575978;40;20407;-80
2021/07/03 12:39:44;;;;;;;9.77;9.07;;;;;;;;;;3584617;39;20447;-80
2021/07/03 12:42:12;;;;;;;9.43;8.83;;;;;;;;;;3573712;40;20441;-80
2021/07/03 12:44:40;;;;;;;9.83;9.23;;;;;;;;;;3576623;40;20965;-80
2021/07/03 12:47:09;;;;;;;8.83;8.23;;;;;;;;;;3584742;39;20428;-80
2021/07/03 12:49:42;;;;;;;9.20;8.70;;;;;;;;;;3584421;40;21184;-81
2021/07/03 12:52:12;;;;;;;9.20;8.47;;;;;;;;;;3576250;40;20564;-80
2021/07/03 12:54:39;;;;;;;7.70;7.20;;;;;;;;;;3583946;40;20428;-80
2021/07/03 12:57:05;;;;;;;8.87;8.13;;;;;;;;;;3581390;40;20444;-79
2021/07/03 12:59:36;;;;;;;10.33;9.53;;;;;;;;;;3577745;40;20472;-79
2021/07/03 13:02:05;;;;;;;11.40;10.50;;;;;;;;;;3575862;40;21153;-79
2021/07/03 13:04:31;;;;;;;9.73;9.13;;;;;;;;;;3584349;40;20563;-80
2021/07/03 13:06:58;;;;;;;10.93;10.33;;;;;;;;;;3585144;40;20510;-79
2021/07/03 13:09:24;;;;;;;10.67;9.80;;;;;;;;;;3580634;40;20409;-79
2021/07/03 13:11:50;;;;;;;10.20;9.60;;;;;;;;;;3584876;39;20412;-81
2021/07/03 13:14:19;;;;;;;11.60;10.67;;;;;;;;;;3586025;40;20440;-79
2021/07/03 13:16:46;;;;;;;11.33;10.40;;;;;;;;;;3585389;39;20424;-81
2021/07/03 13:19:12;;;;;;;9.90;9.20;;;;;;;;;;3586934;40;20444;-80
2021/07/03 13:21:38;;;;;;;11.40;10.30;;;;;;;;;;3584815;40;20396;-80
2021/07/03 13:24:04;;;;;;;10.37;9.47;;;;;;;;;;3570654;40;20412;-80
2021/07/03 13:26:30;;;;;;;10.20;9.50;;;;;;;;;;3578005;39;20397;-81
2021/07/03 13:28:57;;;;;;;10.10;9.50;;;;;;;;;;3569092;40;20424;-81
2021/07/03 13:31:23;;;;;;;10.07;9.47;;;;;;;;;;3585335;40;21246;-80
2021/07/03 13:33:49;;;;;;;8.50;7.80;;;;;;;;;;3574324;40;20413;-80
2021/07/03 13:36:16;;;;;;;8.40;7.80;;;;;;;;;;3577450;40;20389;-81
2021/07/03 13:38:45;;;;;;;8.47;7.77;;;;;;;;;;3575770;39;20422;-81
2021/07/03 13:41:11;;;;;;;10.10;9.30;;;;;;;;;;3574724;40;20416;-80
2021/07/03 13:43:37;;;;;;;9.27;8.67;;;;;;;;;;3579962;40;20432;-81
2021/07/03 13:46:04;;;;;;;11.80;11.00;;;;;;;;;;3577663;40;20392;-81
2021/07/03 13:48:30;;;;;;;13.33;12.43;;;;;;;;;;3575157;40;20402;-81
2021/07/03 13:50:56;;;;;;;9.53;8.83;;;;;;;;;;3586081;39;20403;-81
2021/07/03 13:53:23;;;;;;;10.03;9.37;;;;;;;;;;3567768;40;20455;-81
2021/07/03 13:55:51;;;;;;;12.70;11.60;;;;;;;;;;3570564;40;21275;-82
2021/07/03 13:58:18;;;;;;;12.43;11.43;;;;;;;;;;3584196;40;20409;-82
2021/07/03 14:00:44;;;;;;;11.30;10.40;;;;;;;;;;3578661;40;21003;-82
2021/07/03 14:03:12;;;;;;;12.73;11.73;;;;;;;;;;3582703;40;20405;-82
2021/07/03 14:05:40;;;;;;;9.50;8.80;;;;;;;;;;3584716;39;20418;-82
2021/07/03 14:08:07;;;;;;;8.93;8.33;;;;;;;;;;3567928;40;21267;-82
2021/07/03 14:10:33;;;;;;;11.60;10.67;;;;;;;;;;3578760;40;20401;-80
2021/07/03 14:13:02;;;;;;;10.53;9.83;;;;;;;;;;3579931;40;20413;-83
2021/07/03 14:15:28;;;;;;;12.50;11.40;;;;;;;;;;3588549;40;20425;-82
2021/07/03 14:17:55;;;;;;;12.73;11.83;;;;;;;;;;3587378;40;20424;-82
2021/07/03 14:20:22;;;;;;;12.13;11.33;;;;;;;;;;3576581;40;20414;-81
2021/07/03 14:22:50;;;;;;;13.17;12.17;;;;;;;;;;3579170;40;20405;-82